Time;durP1;ratioP1;P1;durP2;ratioP2;P2;SDS_P1;SDS_P2;PMS_P1;PMS_P2;Temp;Humidity;BMP_temperature;BMP_pressure;BME280_temperature;BME280_humidity;BME280_pressure;Samples;Min_cycle;Max_cycle;Signal;HPM_P1;HPM_P2
2022/10/26 00:01:32;;;;;;;17.47;13.53;;;13.20;99.90;;;;;;5091008;28;20685;-70
2022/10/26 00:03:59;;;;;;;18.73;13.20;;;13.20;99.90;;;;;;5089106;28;20204;-70
2022/10/26 00:06:27;;;;;;;17.73;13.63;;;13.10;99.90;;;;;;5090893;28;20232;-70
2022/10/26 00:08:56;;;;;;;19.70;13.23;;;13.10;99.90;;;;;;5091649;28;20280;-70
2022/10/26 00:11:24;;;;;;;19.33;12.63;;;13.20;99.90;;;;;;5089558;28;20323;-70
2022/10/26 00:13:50;;;;;;;17.17;12.73;;;13.20;99.90;;;;;;5093935;28;20665;-70
2022/10/26 00:16:20;;;;;;;16.17;12.47;;;13.20;99.90;;;;;;5097660;28;20204;-70
2022/10/26 00:18:49;;;;;;;16.40;13.70;;;13.20;99.90;;;;;;5096474;28;20204;-70
2022/10/26 00:21:16;;;;;;;25.73;13.50;;;13.20;99.90;;;;;;5094601;28;20322;-70
2022/10/26 00:23:43;;;;;;;17.60;13.63;;;13.20;99.90;;;;;;5089855;28;20680;-70
2022/10/26 00:26:10;;;;;;;21.33;13.53;;;13.20;99.90;;;;;;5097648;28;20219;-70
2022/10/26 00:28:37;;;;;;;16.63;12.93;;;13.30;99.90;;;;;;5097011;28;20657;-70
2022/10/26 00:31:05;;;;;;;17.53;13.90;;;13.30;99.90;;;;;;5096631;28;20204;-69
2022/10/26 00:33:32;;;;;;;18.70;13.70;;;13.30;99.90;;;;;;5096964;28;20464;-70
2022/10/26 00:36:00;;;;;;;18.23;14.23;;;13.30;99.90;;;;;;5099553;28;20204;-70
2022/10/26 00:38:27;;;;;;;16.63;14.17;;;13.30;99.90;;;;;;5089099;28;20204;-71
2022/10/26 00:40:54;;;;;;;18.93;14.87;;;13.30;99.90;;;;;;5098233;28;20204;-70
2022/10/26 00:43:38;;;;;;;17.03;14.40;;;13.30;99.90;;;;;;5096635;28;20203;-70
2022/10/26 00:46:09;;;;;;;17.77;14.00;;;13.30;99.90;;;;;;5098050;28;20539;-71
2022/10/26 00:48:40;;;;;;;18.07;13.37;;;13.30;99.90;;;;;;5096457;28;20211;-70
2022/10/26 00:51:13;;;;;;;20.93;13.80;;;13.30;99.90;;;;;;5097861;28;20653;-70
2022/10/26 00:53:40;;;;;;;19.50;14.30;;;13.30;99.90;;;;;;5095164;28;20215;-70
2022/10/26 00:56:08;;;;;;;17.83;13.80;;;13.30;99.90;;;;;;5097326;28;20204;-71
2022/10/26 00:58:35;;;;;;;18.53;14.50;;;13.40;99.90;;;;;;5095536;28;20240;-71
2022/10/26 01:01:02;;;;;;;19.07;14.93;;;13.40;99.90;;;;;;5096445;28;20205;-70
2022/10/26 01:03:30;;;;;;;17.77;14.03;;;13.40;99.90;;;;;;5096198;28;20604;-70
2022/10/26 01:05:57;;;;;;;17.87;14.10;;;13.40;99.90;;;;;;5096096;28;20232;-70
2022/10/26 01:08:27;;;;;;;17.10;13.83;;;13.40;99.90;;;;;;5096542;28;20208;-69
2022/10/26 01:10:55;;;;;;;18.53;15.07;;;13.40;99.90;;;;;;5080605;28;20315;-70
2022/10/26 01:13:22;;;;;;;17.43;14.70;;;13.40;99.90;;;;;;5079169;28;20233;-70
2022/10/26 01:15:56;;;;;;;29.50;14.83;;;13.40;99.90;;;;;;5080296;28;20201;-70
2022/10/26 01:18:34;;;;;;;19.27;14.53;;;13.40;99.90;;;;;;5079914;28;21549;-69
2022/10/26 01:21:39;;;;;;;18.57;13.40;;;13.40;99.90;;;;;;5078908;28;20211;-70
2022/10/26 01:24:32;;;;;;;18.33;14.07;;;13.40;99.90;;;;;;5063946;28;20700;-70
2022/10/26 01:27:16;;;;;;;20.93;13.70;;;13.40;99.90;;;;;;5078973;28;20201;-70
2022/10/26 01:30:28;;;;;;;22.40;14.40;;;13.40;99.90;;;;;;5076295;28;20204;-70
2022/10/26 01:33:30;;;;;;;18.17;13.97;;;13.40;99.90;;;;;;5075950;28;20213;-70
2022/10/26 01:36:06;;;;;;;20.27;14.13;;;13.40;99.90;;;;;;5075457;28;20203;-70
2022/10/26 01:38:40;;;;;;;21.47;15.57;;;13.40;99.90;;;;;;5075138;28;20204;-70
2022/10/26 01:41:12;;;;;;;20.03;15.07;;;13.40;99.90;;;;;;5074754;28;20197;-70
2022/10/26 01:43:43;;;;;;;16.07;14.07;;;13.40;99.90;;;;;;5076614;28;20201;-70
2022/10/26 01:46:11;;;;;;;19.17;14.97;;;13.40;99.90;;;;;;5073685;28;20204;-70
2022/10/26 01:48:41;;;;;;;18.63;14.77;;;13.40;99.90;;;;;;5074316;28;20208;-69
2022/10/26 01:51:11;;;;;;;21.43;15.30;;;13.40;99.90;;;;;;5072839;28;20205;-69
2022/10/26 01:53:44;;;;;;;17.77;13.90;;;13.40;99.90;;;;;;5073549;28;20229;-70
2022/10/26 01:56:18;;;;;;;16.57;13.37;;;13.40;99.90;;;;;;5073651;28;20212;-70
2022/10/26 01:59:32;;;;;;;16.83;14.27;;;13.40;99.90;;;;;;5073285;28;20205;-70
2022/10/26 02:02:25;;;;;;;17.00;14.60;;;13.40;99.90;;;;;;5076370;28;20203;-70
2022/10/26 02:05:09;;;;;;;23.17;14.37;;;13.40;99.90;;;;;;5073741;28;20201;-70
2022/10/26 02:07:45;;;;;;;18.87;15.47;;;13.30;99.90;;;;;;5075118;28;20205;-70
2022/10/26 02:10:24;;;;;;;18.27;14.77;;;13.30;99.90;;;;;;5078584;28;20204;-70
2022/10/26 02:13:03;;;;;;;23.27;15.37;;;13.30;99.90;;;;;;5093191;28;20211;-70
2022/10/26 02:15:38;;;;;;;21.90;16.03;;;13.30;99.90;;;;;;5091908;28;20365;-69
2022/10/26 02:18:13;;;;;;;20.87;16.17;;;13.30;99.90;;;;;;5083513;28;20299;-71
2022/10/26 02:20:46;;;;;;;24.13;16.83;;;13.20;99.90;;;;;;5088608;28;20571;-70
2022/10/26 02:23:15;;;;;;;22.23;17.00;;;13.20;99.90;;;;;;5088103;28;20224;-71
2022/10/26 02:25:47;;;;;;;22.43;17.60;;;13.20;99.90;;;;;;5084473;28;20205;-70
2022/10/26 02:28:17;;;;;;;21.33;17.60;;;13.20;99.90;;;;;;5079506;28;20211;-70
2022/10/26 02:30:47;;;;;;;23.17;18.90;;;13.20;99.90;;;;;;5092090;28;20220;-70
2022/10/26 02:33:15;;;;;;;24.03;18.93;;;13.20;99.90;;;;;;5091319;28;20212;-70
2022/10/26 02:35:48;;;;;;;25.53;19.23;;;13.20;99.90;;;;;;5083490;28;20201;-70
2022/10/26 02:38:18;;;;;;;25.27;17.47;;;13.20;99.90;;;;;;5090913;28;20205;-70
2022/10/26 02:40:48;;;;;;;26.53;18.20;;;13.20;99.90;;;;;;5084200;28;20205;-70
2022/10/26 02:43:20;;;;;;;25.80;18.43;;;13.20;99.90;;;;;;5091570;28;20208;-70
2022/10/26 02:45:51;;;;;;;21.93;16.57;;;13.10;99.90;;;;;;5093495;28;20227;-70
2022/10/26 02:48:19;;;;;;;22.73;16.80;;;13.20;99.90;;;;;;5093099;28;20201;-71
2022/10/26 02:50:54;;;;;;;24.13;17.23;;;13.20;99.90;;;;;;5092203;28;20275;-71
2022/10/26 02:53:25;;;;;;;20.40;16.30;;;13.20;99.90;;;;;;5084559;28;20586;-70
2022/10/26 02:55:52;;;;;;;19.60;16.17;;;13.20;99.90;;;;;;5092769;28;20207;-70
2022/10/26 02:58:23;;;;;;;24.10;15.80;;;13.20;99.90;;;;;;5093146;28;20205;-70
2022/10/26 03:00:51;;;;;;;19.80;16.33;;;13.10;99.90;;;;;;5091796;28;20664;-70
2022/10/26 03:03:20;;;;;;;20.43;17.03;;;13.10;99.90;;;;;;5092209;28;20201;-70
2022/10/26 03:05:48;;;;;;;19.83;15.67;;;13.10;99.90;;;;;;5092628;28;20235;-70
2022/10/26 03:08:14;;;;;;;20.77;15.10;;;13.10;99.90;;;;;;5091905;28;20676;-70
2022/10/26 03:10:43;;;;;;;20.77;15.17;;;13.10;99.90;;;;;;5089683;28;20212;-71
2022/10/26 03:13:11;;;;;;;19.30;15.23;;;13.10;99.90;;;;;;5091226;28;20231;-70
2022/10/26 03:15:38;;;;;;;22.47;15.73;;;13.10;99.90;;;;;;5089969;28;20205;-70
2022/10/26 03:18:05;;;;;;;21.83;17.13;;;13.10;99.90;;;;;;5092032;28;20205;-70
2022/10/26 03:20:32;;;;;;;20.40;16.53;;;13.10;99.90;;;;;;5089483;28;20538;-70
2022/10/26 03:23:00;;;;;;;25.53;17.20;;;13.10;99.90;;;;;;5092090;28;20226;-70
2022/10/26 03:25:27;;;;;;;22.07;16.83;;;13.00;99.90;;;;;;5092779;28;20204;-70
2022/10/26 03:27:58;;;;;;;26.07;17.33;;;13.00;99.90;;;;;;5091633;28;20204;-71
2022/10/26 03:30:25;;;;;;;19.77;15.93;;;13.00;99.90;;;;;;5090791;28;20212;-70
2022/10/26 03:32:52;;;;;;;23.10;17.70;;;13.00;99.90;;;;;;5089090;28;20220;-71
2022/10/26 03:35:19;;;;;;;19.77;15.97;;;13.00;99.90;;;;;;5091009;28;20205;-70
2022/10/26 03:37:46;;;;;;;24.43;16.33;;;13.00;99.90;;;;;;5092076;28;20196;-71
2022/10/26 03:40:14;;;;;;;23.97;16.10;;;13.00;99.90;;;;;;5089087;28;20205;-70
2022/10/26 03:42:41;;;;;;;24.60;17.47;;;13.00;99.90;;;;;;5091309;28;20227;-70
2022/10/26 03:45:09;;;;;;;24.77;17.30;;;13.00;99.90;;;;;;5090866;28;20204;-71
2022/10/26 03:47:42;;;;;;;24.80;17.10;;;13.00;99.90;;;;;;5090627;28;20672;-70
2022/10/26 03:50:10;;;;;;;20.97;16.97;;;13.00;99.90;;;;;;5088171;28;20196;-71
2022/10/26 03:52:37;;;;;;;27.90;17.70;;;12.90;99.90;;;;;;5091356;28;20228;-70
2022/10/26 03:55:04;;;;;;;24.07;16.57;;;12.90;99.90;;;;;;5091509;28;20216;-71
2022/10/26 03:57:32;;;;;;;20.87;16.27;;;12.90;99.90;;;;;;5092183;28;20561;-70
2022/10/26 03:59:59;;;;;;;25.07;16.87;;;12.90;99.90;;;;;;5091959;28;20579;-70
2022/10/26 04:02:25;;;;;;;23.87;17.30;;;12.90;99.90;;;;;;5089350;28;20572;-70
2022/10/26 04:04:52;;;;;;;22.87;16.00;;;12.90;99.90;;;;;;5091093;28;20212;-70
2022/10/26 04:07:19;;;;;;;24.30;18.10;;;12.90;99.90;;;;;;5091053;28;20232;-70
2022/10/26 04:09:46;;;;;;;22.83;16.73;;;12.90;99.90;;;;;;5090212;28;20211;-71
2022/10/26 04:12:12;;;;;;;25.43;17.57;;;12.90;99.90;;;;;;5089917;28;20651;-71
2022/10/26 04:14:40;;;;;;;24.73;17.00;;;12.90;99.90;;;;;;5089889;28;20227;-70
2022/10/26 04:17:07;;;;;;;24.27;17.57;;;12.90;99.90;;;;;;5091539;28;20208;-69
2022/10/26 04:19:34;;;;;;;24.30;16.97;;;12.80;99.90;;;;;;5091724;28;20215;-69
2022/10/26 04:22:00;;;;;;;21.07;15.90;;;12.90;99.90;;;;;;5090732;28;20200;-71
2022/10/26 04:24:27;;;;;;;23.37;17.20;;;12.80;99.90;;;;;;5090170;28;20212;-70
2022/10/26 04:26:54;;;;;;;23.77;17.17;;;12.80;99.90;;;;;;5089948;28;20211;-70
2022/10/26 04:29:21;;;;;;;21.90;16.17;;;12.80;99.90;;;;;;5090728;28;20200;-70
2022/10/26 04:31:49;;;;;;;23.73;17.47;;;12.80;99.90;;;;;;5088813;28;20212;-70
2022/10/26 04:34:15;;;;;;;25.33;18.17;;;12.80;99.90;;;;;;5089542;28;20223;-76
2022/10/26 04:36:42;;;;;;;23.73;18.23;;;12.70;99.90;;;;;;5088780;28;20201;-70
2022/10/26 04:39:09;;;;;;;21.37;16.53;;;12.70;99.90;;;;;;5089059;28;20204;-72
2022/10/26 04:41:36;;;;;;;24.77;17.13;;;12.70;99.90;;;;;;5088604;28;20208;-73
2022/10/26 04:44:02;;;;;;;20.73;17.33;;;12.80;99.90;;;;;;5088415;28;20197;-72
2022/10/26 04:46:29;;;;;;;22.77;16.63;;;12.70;99.90;;;;;;5090832;28;20201;-72
2022/10/26 04:48:57;;;;;;;24.57;17.73;;;12.80;99.90;;;;;;5089945;28;20209;-70
2022/10/26 04:51:24;;;;;;;22.47;16.40;;;12.70;99.90;;;;;;5086681;28;20216;-73
2022/10/26 04:53:53;;;;;;;22.57;16.97;;;12.80;99.90;;;;;;5087042;28;20225;-73
2022/10/26 04:56:20;;;;;;;22.47;16.43;;;12.80;99.90;;;;;;5089272;28;20212;-72
2022/10/26 04:58:47;;;;;;;22.07;15.93;;;12.80;99.90;;;;;;5090278;28;20209;-72
2022/10/26 05:01:14;;;;;;;19.33;15.90;;;12.70;99.90;;;;;;5088577;28;20216;-71
2022/10/26 05:03:40;;;;;;;22.33;16.87;;;12.70;99.90;;;;;;5087337;28;20201;-71
2022/10/26 05:06:09;;;;;;;24.03;17.67;;;12.70;99.90;;;;;;5091557;28;20240;-72
2022/10/26 05:08:35;;;;;;;23.40;17.80;;;12.70;99.90;;;;;;5087312;28;20212;-68
2022/10/26 05:11:02;;;;;;;24.00;17.33;;;12.70;99.90;;;;;;5093877;28;20205;-71
2022/10/26 05:13:29;;;;;;;22.20;17.60;;;12.80;99.90;;;;;;5094438;28;20228;-70
2022/10/26 05:15:56;;;;;;;23.50;17.80;;;12.70;99.90;;;;;;5093069;28;20615;-71
2022/10/26 05:18:22;;;;;;;27.20;17.83;;;12.80;99.90;;;;;;5095779;28;20207;-69
2022/10/26 05:20:52;;;;;;;22.07;18.10;;;12.70;99.90;;;;;;5094864;28;20208;-70
2022/10/26 05:23:21;;;;;;;22.17;18.20;;;12.70;99.90;;;;;;5092552;28;20225;-71
2022/10/26 05:25:48;;;;;;;26.03;18.00;;;12.70;99.90;;;;;;5092974;28;20221;-72
2022/10/26 05:28:16;;;;;;;20.23;16.93;;;12.80;99.90;;;;;;5088327;28;20205;-72
2022/10/26 05:30:45;;;;;;;25.20;17.67;;;12.70;99.90;;;;;;5093989;28;20575;-74
2022/10/26 05:33:13;;;;;;;23.90;17.13;;;12.70;99.90;;;;;;5090401;28;20525;-73
2022/10/26 05:35:40;;;;;;;24.77;18.03;;;12.70;99.90;;;;;;5091808;28;20205;-73
2022/10/26 05:38:08;;;;;;;26.33;17.30;;;12.70;99.90;;;;;;5091734;28;20205;-73
2022/10/26 05:40:38;;;;;;;22.17;17.23;;;12.80;99.90;;;;;;5092211;28;20253;-75
2022/10/26 05:43:04;;;;;;;23.03;17.27;;;12.70;99.90;;;;;;5092974;28;20468;-74
2022/10/26 05:45:31;;;;;;;25.40;19.73;;;12.80;99.90;;;;;;5090381;28;20805;-73
2022/10/26 05:47:58;;;;;;;22.23;17.73;;;12.80;99.90;;;;;;5091865;28;20208;-69
2022/10/26 05:50:25;;;;;;;21.87;15.87;;;12.80;99.90;;;;;;5093286;28;20615;-75
2022/10/26 05:52:51;;;;;;;21.17;15.77;;;12.80;99.90;;;;;;5092581;28;20209;-77
2022/10/26 05:55:19;;;;;;;20.20;15.13;;;12.80;99.90;;;;;;5090883;28;20224;-74
2022/10/26 05:57:48;;;;;;;24.10;15.57;;;12.80;99.90;;;;;;5093414;28;20212;-76
2022/10/26 06:00:20;;;;;;;19.90;15.17;;;12.90;99.90;;;;;;5090933;28;20204;-75
2022/10/26 06:03:05;;;;;;;24.13;15.23;;;12.90;99.90;;;;;;5093443;28;20209;-75
2022/10/26 06:05:37;;;;;;;19.00;14.27;;;12.90;99.90;;;;;;5090012;28;20238;-76
2022/10/26 06:08:09;;;;;;;22.73;14.30;;;12.90;99.90;;;;;;5087349;28;20216;-73
2022/10/26 06:10:37;;;;;;;18.07;13.60;;;12.90;99.90;;;;;;5092732;28;20646;-72
2022/10/26 06:13:06;;;;;;;20.70;12.90;;;12.90;99.90;;;;;;5093027;28;20208;-72
2022/10/26 06:15:41;;;;;;;22.87;13.70;;;12.90;99.90;;;;;;5094324;28;20235;-74
2022/10/26 06:18:16;;;;;;;22.43;14.23;;;12.90;99.90;;;;;;5086118;28;20206;-72
2022/10/26 06:20:50;;;;;;;17.63;13.93;;;12.90;99.90;;;;;;5086750;28;20205;-76
2022/10/26 06:23:37;;;;;;;16.33;12.90;;;12.90;99.90;;;;;;5088080;28;20220;-70
2022/10/26 06:26:15;;;;;;;18.27;12.70;;;12.90;99.90;;;;;;5088068;28;20196;-74
2022/10/26 06:28:53;;;;;;;19.17;13.13;;;12.90;99.90;;;;;;5088284;28;20657;-75
2022/10/26 06:31:20;;;;;;;19.07;12.43;;;12.90;99.90;;;;;;5093115;28;20235;-71
2022/10/26 06:33:47;;;;;;;21.30;13.07;;;12.90;99.90;;;;;;5092269;28;20220;-74
2022/10/26 06:36:21;;;;;;;22.17;16.23;;;13.00;99.90;;;;;;5091336;28;20238;-74
2022/10/26 06:38:50;;;;;;;20.37;12.93;;;12.90;99.90;;;;;;5088866;28;20261;-76
2022/10/26 06:41:21;;;;;;;19.60;13.00;;;13.00;99.90;;;;;;5091429;28;20201;-76
2022/10/26 06:43:51;;;;;;;16.40;12.43;;;13.00;99.90;;;;;;5092406;28;20683;-77
2022/10/26 06:46:32;;;;;;;19.23;12.33;;;13.00;99.90;;;;;;5091603;28;20897;-74
2022/10/26 06:49:06;;;;;;;20.50;12.63;;;13.10;99.90;;;;;;5091305;28;20208;-74
2022/10/26 06:51:40;;;;;;;19.53;12.87;;;13.10;99.90;;;;;;5091360;28;20200;-76
2022/10/26 06:54:16;;;;;;;19.97;13.47;;;13.20;99.90;;;;;;5088411;28;20223;-78
2022/10/26 06:56:45;;;;;;;18.03;12.20;;;13.20;99.90;;;;;;5090284;28;20673;-78
2022/10/26 06:59:22;;;;;;;15.27;10.83;;;13.30;99.90;;;;;;5092551;28;20684;-78
2022/10/26 07:01:48;;;;;;;17.30;11.73;;;13.30;99.90;;;;;;5094485;28;20208;-79
2022/10/26 07:04:15;;;;;;;15.30;11.37;;;13.40;99.90;;;;;;5092133;28;20243;-77
2022/10/26 07:06:42;;;;;;;16.90;12.27;;;13.40;99.90;;;;;;5093153;28;20233;-78
2022/10/26 07:09:09;;;;;;;15.13;11.27;;;13.40;99.90;;;;;;5093268;28;20565;-77
2022/10/26 07:11:36;;;;;;;18.87;12.63;;;13.40;99.90;;;;;;5093025;28;20215;-77
2022/10/26 07:14:03;;;;;;;19.30;12.03;;;13.50;99.90;;;;;;5091078;28;20626;-77
2022/10/26 07:16:31;;;;;;;19.00;13.00;;;13.50;99.90;;;;;;5092950;28;20205;-77
2022/10/26 07:18:58;;;;;;;21.27;13.07;;;13.50;99.90;;;;;;5088419;28;20226;-77
2022/10/26 07:21:24;;;;;;;17.57;11.70;;;13.60;99.90;;;;;;5091047;28;20204;-71
2022/10/26 07:23:54;;;;;;;17.90;12.67;;;13.60;99.90;;;;;;5088997;28;20227;-73
2022/10/26 07:26:21;;;;;;;19.37;12.47;;;13.60;99.90;;;;;;5083195;28;20211;-70
2022/10/26 07:28:49;;;;;;;18.53;11.97;;;13.60;99.90;;;;;;5078651;28;20215;-72
2022/10/26 07:31:16;;;;;;;20.07;13.27;;;13.50;99.90;;;;;;5085518;28;20200;-71
2022/10/26 07:33:44;;;;;;;18.33;11.63;;;13.50;99.90;;;;;;5091503;28;20275;-73
2022/10/26 07:36:11;;;;;;;22.37;13.03;;;13.40;99.90;;;;;;5089982;28;20196;-70
2022/10/26 07:38:38;;;;;;;20.33;13.87;;;13.40;99.90;;;;;;5093156;28;20211;-75
2022/10/26 07:41:05;;;;;;;17.60;12.63;;;13.40;99.90;;;;;;5089675;28;20223;-73
2022/10/26 07:43:32;;;;;;;19.77;13.47;;;13.40;99.90;;;;;;5089047;28;20208;-74
2022/10/26 07:45:59;;;;;;;16.60;11.30;;;13.40;99.90;;;;;;5087527;28;20208;-72
2022/10/26 07:48:26;;;;;;;19.47;12.23;;;13.40;99.90;;;;;;5090840;28;20216;-74
2022/10/26 07:50:54;;;;;;;17.63;11.90;;;13.30;99.90;;;;;;5090788;28;20216;-73
2022/10/26 07:53:21;;;;;;;20.70;13.23;;;13.40;99.90;;;;;;5090233;28;20214;-74
2022/10/26 07:55:53;;;;;;;21.07;13.27;;;13.30;99.90;;;;;;5087370;28;20236;-73
2022/10/26 07:58:22;;;;;;;19.17;12.60;;;13.40;99.90;;;;;;5089684;28;20254;-73
2022/10/26 08:00:49;;;;;;;18.80;12.67;;;13.40;99.90;;;;;;5091453;28;20212;-73
2022/10/26 08:03:16;;;;;;;16.87;12.40;;;13.40;99.90;;;;;;5092774;28;20291;-73
2022/10/26 08:05:45;;;;;;;16.17;12.47;;;13.40;99.90;;;;;;5095502;28;20228;-73
2022/10/26 08:08:13;;;;;;;18.20;12.63;;;13.40;99.90;;;;;;5090028;28;20204;-74
2022/10/26 08:10:42;;;;;;;15.90;11.63;;;13.50;99.90;;;;;;5087723;28;20215;-74
2022/10/26 08:13:09;;;;;;;13.43;10.37;;;13.40;99.90;;;;;;5084341;28;20215;-74
2022/10/26 08:15:36;;;;;;;14.97;10.07;;;13.40;99.90;;;;;;5089521;28;20255;-73
2022/10/26 08:18:04;;;;;;;13.17;9.73;;;13.30;99.90;;;;;;5077462;28;20201;-73
2022/10/26 08:20:30;;;;;;;16.00;10.00;;;13.30;99.90;;;;;;5090543;28;20215;-72
2022/10/26 08:22:57;;;;;;;22.73;10.43;;;13.30;99.90;;;;;;5092033;28;20651;-74
2022/10/26 08:25:25;;;;;;;14.53;10.50;;;13.30;99.90;;;;;;5090496;28;20203;-73
2022/10/26 08:27:53;;;;;;;13.80;10.53;;;13.30;99.90;;;;;;5089890;28;20209;-73
2022/10/26 08:30:20;;;;;;;14.17;9.97;;;13.20;99.90;;;;;;5088893;28;20219;-74
2022/10/26 08:32:47;;;;;;;14.63;10.77;;;13.20;99.90;;;;;;5091247;28;20212;-74
2022/10/26 08:35:14;;;;;;;14.93;10.03;;;13.10;99.90;;;;;;5094757;28;20239;-75
2022/10/26 08:37:41;;;;;;;14.33;9.70;;;13.00;99.90;;;;;;5086939;28;20215;-73
2022/10/26 08:40:15;;;;;;;14.80;10.43;;;13.00;99.90;;;;;;5093627;28;20232;-72
2022/10/26 08:42:48;;;;;;;17.40;10.73;;;13.00;99.90;;;;;;5093799;28;20719;-70
2022/10/26 08:45:24;;;;;;;19.10;10.63;;;12.90;99.90;;;;;;5088076;28;20913;-72
2022/10/26 08:47:55;;;;;;;13.27;9.77;;;12.90;99.90;;;;;;5092402;28;20196;-72
2022/10/26 08:50:27;;;;;;;16.93;11.17;;;12.90;99.90;;;;;;5096092;28;20212;-74
2022/10/26 08:53:03;;;;;;;15.73;11.00;;;12.90;99.90;;;;;;5094525;28;20197;-72
2022/10/26 08:55:38;;;;;;;17.37;12.20;;;12.90;99.90;;;;;;5094119;28;20219;-77
2022/10/26 08:58:13;;;;;;;15.80;11.90;;;12.80;99.90;;;;;;5092638;28;20249;-74
2022/10/26 09:00:41;;;;;;;14.40;11.00;;;12.90;99.90;;;;;;5086940;28;20200;-74
2022/10/26 09:03:13;;;;;;;15.87;11.13;;;12.90;99.90;;;;;;5096279;28;20212;-77
2022/10/26 09:05:53;;;;;;;14.30;10.93;;;12.90;99.90;;;;;;5093713;28;20232;-75
2022/10/26 09:08:30;;;;;;;16.73;12.07;;;13.00;99.90;;;;;;5094797;28;20208;-77
2022/10/26 09:11:07;;;;;;;18.23;11.60;;;13.00;99.90;;;;;;5096101;28;20211;-75
2022/10/26 09:13:48;;;;;;;19.10;13.07;;;13.00;99.90;;;;;;5094023;28;20216;-73
2022/10/26 09:16:26;;;;;;;18.73;12.87;;;13.00;99.90;;;;;;5094276;28;20227;-75
2022/10/26 09:19:01;;;;;;;18.83;13.37;;;13.10;99.90;;;;;;5097201;28;20540;-76
2022/10/26 09:21:38;;;;;;;18.57;12.47;;;13.10;99.90;;;;;;5098585;28;20219;-76
2022/10/26 09:24:12;;;;;;;15.07;10.73;;;13.20;99.90;;;;;;5097570;28;20947;-76
2022/10/26 09:26:53;;;;;;;14.20;10.77;;;13.20;99.90;;;;;;5095574;28;20199;-75
2022/10/26 09:29:24;;;;;;;15.27;10.83;;;13.20;99.90;;;;;;5094984;28;20204;-75
2022/10/26 09:31:52;;;;;;;16.13;11.83;;;13.30;99.90;;;;;;5095279;28;20212;-78
2022/10/26 09:34:27;;;;;;;16.63;11.30;;;13.30;99.90;;;;;;5095519;28;20208;-75
2022/10/26 09:36:55;;;;;;;13.60;11.07;;;13.40;99.90;;;;;;5094012;28;20224;-75
2022/10/26 09:39:29;;;;;;;18.47;12.33;;;13.40;99.90;;;;;;5095368;28;20223;-76
2022/10/26 09:41:59;;;;;;;15.33;11.50;;;13.40;99.90;;;;;;5081206;28;20227;-77
2022/10/26 09:44:31;;;;;;;17.57;12.13;;;13.40;99.90;;;;;;5095271;28;20203;-76
2022/10/26 09:47:05;;;;;;;19.30;12.40;;;13.40;99.90;;;;;;5094339;28;20244;-76
2022/10/26 09:49:40;;;;;;;14.73;11.07;;;13.50;99.90;;;;;;5094442;28;20204;-75
2022/10/26 09:52:07;;;;;;;14.60;10.53;;;13.60;99.90;;;;;;5095333;28;20196;-76
2022/10/26 09:54:35;;;;;;;16.80;11.20;;;13.70;99.90;;;;;;5095469;28;20219;-76
2022/10/26 09:57:02;;;;;;;14.93;10.60;;;13.70;99.90;;;;;;5096293;28;20243;-76
2022/10/26 09:59:35;;;;;;;18.43;12.37;;;13.80;99.90;;;;;;5094707;28;20201;-76
2022/10/26 10:02:38;;;;;;;14.87;10.53;;;13.80;99.90;;;;;;5093644;28;20201;-77
2022/10/26 10:05:21;;;;;;;13.90;11.20;;;13.80;99.90;;;;;;5091291;28;20204;-76
2022/10/26 10:07:48;;;;;;;15.27;10.43;;;13.80;99.90;;;;;;5084477;28;20250;-76
2022/10/26 10:10:17;;;;;;;16.80;11.83;;;13.80;99.90;;;;;;5095022;28;20204;-76
2022/10/26 10:12:49;;;;;;;15.70;11.53;;;13.80;99.90;;;;;;5092280;28;20227;-76
2022/10/26 10:15:21;;;;;;;15.40;10.70;;;13.90;99.90;;;;;;5094485;28;20209;-76
2022/10/26 10:17:49;;;;;;;19.67;11.00;;;13.80;99.90;;;;;;5095415;28;20212;-77
2022/10/26 10:20:21;;;;;;;16.23;10.57;;;13.90;99.90;;;;;;5091140;28;20669;-76
2022/10/26 10:22:55;;;;;;;17.37;10.37;;;13.90;99.90;;;;;;5091570;28;20228;-77
2022/10/26 10:25:28;;;;;;;18.73;11.10;;;13.90;99.90;;;;;;5100404;28;20223;-76
2022/10/26 10:27:54;;;;;;;16.10;10.00;;;14.00;99.90;;;;;;5094428;28;20215;-75
2022/10/26 10:30:28;;;;;;;16.03;10.77;;;14.10;99.90;;;;;;5094815;28;20292;-75
2022/10/26 10:33:06;;;;;;;18.03;13.83;;;14.20;99.90;;;;;;5093710;28;20210;-76
2022/10/26 10:35:33;;;;;;;14.93;11.13;;;14.10;99.90;;;;;;5094062;28;20332;-75
2022/10/26 10:38:01;;;;;;;17.07;11.07;;;14.20;99.90;;;;;;5095296;28;20200;-75
2022/10/26 10:40:30;;;;;;;15.87;10.87;;;14.30;99.90;;;;;;5094545;28;20274;-77
2022/10/26 10:43:05;;;;;;;13.77;10.57;;;14.30;99.90;;;;;;5092001;28;20285;-75
2022/10/26 10:45:34;;;;;;;14.07;10.53;;;14.20;99.90;;;;;;5095549;28;20206;-76
2022/10/26 10:48:04;;;;;;;15.40;10.83;;;14.20;99.90;;;;;;5094402;28;20205;-78
2022/10/26 10:50:33;;;;;;;15.70;10.83;;;14.30;99.90;;;;;;5092191;28;20232;-76
2022/10/26 10:53:18;;;;;;;17.70;10.47;;;14.30;99.90;;;;;;5091827;28;20581;-76
2022/10/26 10:55:57;;;;;;;14.87;10.43;;;14.30;99.90;;;;;;5091854;28;20231;-76
2022/10/26 10:58:29;;;;;;;17.80;10.87;;;14.30;99.90;;;;;;5087588;28;20210;-73
2022/10/26 11:00:57;;;;;;;13.30;10.40;;;14.40;99.90;;;;;;5092040;28;20208;-77
2022/10/26 11:03:39;;;;;;;15.30;10.67;;;14.50;99.90;;;;;;5090639;28;20215;-77
2022/10/26 11:06:13;;;;;;;18.03;11.30;;;14.60;99.90;;;;;;5084352;28;20619;-81
2022/10/26 11:08:46;;;;;;;14.97;11.83;;;14.70;99.90;;;;;;5089104;28;20239;-77
2022/10/26 11:11:16;;;;;;;16.20;12.07;;;14.60;99.90;;;;;;5085640;28;20207;-71
2022/10/26 11:13:52;;;;;;;18.00;12.03;;;14.60;99.90;;;;;;5087607;28;20418;-74
2022/10/26 11:16:24;;;;;;;15.30;11.73;;;14.70;99.90;;;;;;5089977;28;20212;-74
2022/10/26 11:18:55;;;;;;;14.47;12.07;;;14.90;99.90;;;;;;5086182;28;20204;-74
2022/10/26 11:21:27;;;;;;;17.73;12.40;;;15.10;99.90;;;;;;5091491;28;20204;-79
2022/10/26 11:24:01;;;;;;;17.37;12.10;;;15.10;99.90;;;;;;5093681;28;20228;-73
2022/10/26 11:26:33;;;;;;;17.07;12.33;;;15.00;99.90;;;;;;5091070;28;20216;-73
2022/10/26 11:29:06;;;;;;;17.93;12.17;;;15.00;99.90;;;;;;5086775;28;20212;-74
2022/10/26 11:31:41;;;;;;;17.13;12.70;;;14.90;99.90;;;;;;5088442;28;20204;-72
2022/10/26 11:34:19;;;;;;;23.13;13.57;;;14.90;99.90;;;;;;5088662;28;20211;-73
2022/10/26 11:36:52;;;;;;;19.47;12.97;;;14.80;99.90;;;;;;5090544;28;20226;-72
2022/10/26 11:39:25;;;;;;;15.07;12.67;;;14.70;99.90;;;;;;5091727;28;20215;-73
2022/10/26 11:41:59;;;;;;;17.60;11.73;;;14.60;99.90;;;;;;5089413;28;20207;-74
2022/10/26 11:44:35;;;;;;;17.13;12.30;;;14.60;99.90;;;;;;5091948;28;20237;-73
2022/10/26 11:47:09;;;;;;;16.50;10.97;;;14.60;99.90;;;;;;5086291;28;20193;-74
2022/10/26 11:49:42;;;;;;;19.37;12.40;;;14.50;99.90;;;;;;5090944;28;20231;-76
2022/10/26 11:52:16;;;;;;;15.57;12.13;;;14.60;99.90;;;;;;5091514;28;20207;-75
2022/10/26 11:54:47;;;;;;;14.67;11.57;;;14.40;99.90;;;;;;5089892;28;20214;-74
2022/10/26 11:57:16;;;;;;;17.07;11.37;;;14.40;99.90;;;;;;5089547;28;20856;-74
2022/10/26 11:59:48;;;;;;;16.00;12.07;;;14.40;99.90;;;;;;5089876;27;20216;-74
2022/10/26 12:02:19;;;;;;;17.80;13.33;;;14.40;99.90;;;;;;5084565;28;20196;-73
2022/10/26 12:04:50;;;;;;;16.50;12.97;;;14.30;99.90;;;;;;5089154;28;20204;-74
2022/10/26 12:07:23;;;;;;;17.17;12.07;;;13.80;99.90;;;;;;5090162;28;20228;-73
2022/10/26 12:09:51;;;;;;;18.57;12.00;;;14.30;99.90;;;;;;5090802;28;20216;-75
2022/10/26 12:12:23;;;;;;;15.43;10.33;;;14.40;99.90;;;;;;5091546;28;20205;-75
2022/10/26 12:14:59;;;;;;;16.17;10.60;;;14.40;99.90;;;;;;5091072;28;20216;-75
2022/10/26 12:17:35;;;;;;;16.43;10.10;;;14.40;99.90;;;;;;5090468;28;20579;-75
2022/10/26 12:20:16;;;;;;;11.97;9.53;;;14.50;99.90;;;;;;5087042;28;20211;-75
2022/10/26 12:22:43;;;;;;;13.60;9.07;;;14.60;99.90;;;;;;5086020;28;20239;-74
2022/10/26 12:25:20;;;;;;;17.30;10.60;;;14.70;99.90;;;;;;5089532;28;20208;-75
2022/10/26 12:27:53;;;;;;;13.30;9.50;;;14.60;99.90;;;;;;5087566;28;20222;-75
2022/10/26 12:30:29;;;;;;;14.37;9.37;;;14.70;99.90;;;;;;5089617;28;20285;-75
2022/10/26 12:33:00;;;;;;;15.57;9.17;;;14.80;99.90;;;;;;5090863;28;20204;-74
2022/10/26 12:35:47;;;;;;;16.43;10.20;;;14.80;99.90;;;;;;5090657;28;20205;-75
2022/10/26 12:38:55;;;;;;;12.97;9.67;;;14.90;99.90;;;;;;5090873;28;20656;-75
2022/10/26 12:41:24;;;;;;;15.67;10.50;;;14.90;99.90;;;;;;5087750;28;20204;-76
2022/10/26 12:43:59;;;;;;;15.07;8.60;;;14.80;99.90;;;;;;5089843;28;20205;-75
2022/10/26 12:46:41;;;;;;;12.27;8.87;;;14.70;99.90;;;;;;5090785;28;20291;-75
2022/10/26 12:49:59;;;;;;;12.40;8.57;;;14.70;99.90;;;;;;5087473;28;20204;-76